Tucana — PBAQ — position and weather

sailwx.info

Track history (hours):
 
Tides and Currents Weather Stations Pressure Air Temp Water Temp Dewpoint Dewpoint Depression Visibility Wind Speed Wind Dir Waves Ship Positions

Tucana

Last reported at 2017-Nov-19 08:10 UTC. Time now 2017-Nov-20 12:07 UTC.
Position N 55°59' E 016°30'.

Length 88 m; draft 5.6 m.

Type: Ship. MMSI: 245050000.

Date/timePositionNaut miles runAvg speedWind from/ knotsBaromVisibWave heightAir tempDewpointWater temp
2017-Nov-19 08:10N 55°59' E 016°30'2 9.5
2017-Nov-19 08:00N 55°58' E 016°28'5 9.4
2017-Nov-19 07:30N 55°56' E 016°20'5 9.4
2017-Nov-19 07:00N 55°54' E 016°13'5 9.3
2017-Nov-19 06:30N 55°51' E 016°06'5 9.5
2017-Nov-19 06:00N 55°49' E 015°58'5 9.5
2017-Nov-19 05:30N 55°47' E 015°51'5 9.4
2017-Nov-19 05:00N 55°45' E 015°44'5 9.4
2017-Nov-19 04:30N 55°42' E 015°36'5 9.5
2017-Nov-19 04:00N 55°40' E 015°29'5 9.7
2017-Nov-19 03:30N 55°38' E 015°21'5 9.5
2017-Nov-19 03:00N 55°35' E 015°14'5 9.6
2017-Nov-19 02:30N 55°33' E 015°07'7 9.5
2017-Nov-19 01:44N 55°30' E 014°55'2 9.6
2017-Nov-19 01:29N 55°29' E 014°52'6 9.7
2017-Nov-19 00:49N 55°25' E 014°42'3 9.5
2017-Nov-19 00:30N 55°24' E 014°37'5 9.3
2017-Nov-19 00:00N 55°20' E 014°32'4 8.6
2017-Nov-18 23:30N 55°17' E 014°27'4 8.5
2017-Nov-18 23:00N 55°13' E 014°23'4 8.1
2017-Nov-18 22:30N 55°11' E 014°17'5 9.0
2017-Nov-18 22:00N 55°11' E 014°09'6 9.1
2017-Nov-18 21:19N 55°11' E 013°58'37 9.3
2017-Nov-18 17:21N 55°15' E 012°54'6 9.6
2017-Nov-18 16:43N 55°17' E 012°44'2 9.5
2017-Nov-18 16:30N 55°18' E 012°40'4 8.0
2017-Nov-18 16:00N 55°21' E 012°39'5 9.6
2017-Nov-18 15:30N 55°26' E 012°40'510.2
2017-Nov-18 15:00N 55°31' E 012°42'510.5
2017-Nov-18 14:30N 55°36' E 012°42'611.0
2017-Nov-18 14:00N 55°42' E 012°41'510.5
2017-Nov-18 13:30N 55°47' E 012°41'510.2
2017-Nov-18 13:00N 55°52' E 012°40'5 9.9
2017-Nov-18 12:30N 55°57' E 012°38'5 9.9
2017-Nov-18 12:00N 56°02' E 012°38'5 9.4
2017-Nov-18 11:30N 56°06' E 012°33'5 9.9
2017-Nov-18 11:00N 56°09' E 012°26'5 9.7
2017-Nov-18 10:27N 56°12' E 012°18'68 8.9
2017-Nov-18 02:48N 57°15' E 011°31'4 9.3
2017-Nov-18 02:21N 57°19' E 011°28'4 9.1
2017-Nov-18 01:57N 57°22' E 011°25'4 9.1
2017-Nov-18 01:29N 57°26' E 011°22'5 9.1
2017-Nov-18 00:58N 57°29' E 011°16'5 9.7
2017-Nov-18 00:29N 57°32' E 011°08'5 9.7
2017-Nov-18 00:00N 57°34' E 011°01'510.0
2017-Nov-17 23:30N 57°37' E 010°53'510.1
2017-Nov-17 23:00N 57°40' E 010°46'5 9.8
2017-Nov-17 22:30N 57°42' E 010°37'5 2.7
2017-Nov-17 20:36N 57°45' E 010°45'1 9.0
2017-Nov-17 20:30N 57°46' E 010°44'610.9
2017-Nov-17 20:00N 57°46' E 010°34'347 8.7
2017-Nov-16 04:21N 53°08' E 004°29'510.6
2017-Nov-16 03:53N 53°04' E 004°25'410.8
2017-Nov-16 03:30N 53°00' E 004°22'510.9
2017-Nov-16 03:00N 52°55' E 004°18'511.0
2017-Nov-16 02:30N 52°51' E 004°13'611.0
2017-Nov-16 02:00N 52°46' E 004°08'510.9
2017-Nov-16 01:30N 52°42' E 004°02'91 9.4
2017-Nov-15 15:49N 51°34' E 002°23'3 9.4
2017-Nov-15 15:30N 51°32' E 002°20'5 9.5
2017-Nov-15 15:00N 51°28' E 002°15'510.0
2017-Nov-15 14:30N 51°24' E 002°11'510.1
2017-Nov-15 14:00N 51°20' E 002°08'510.4
2017-Nov-15 13:30N 51°15' E 002°04'510.6
2017-Nov-15 13:00N 51°12' E 001°57'510.8
2017-Nov-15 12:30N 51°09' E 001°50'611.3
2017-Nov-15 12:00N 51°05' E 001°43'611.6
2017-Nov-15 11:30N 51°01' E 001°37'611.9
2017-Nov-15 10:58N 50°56' E 001°30'7110.3
2017-Nov-15 04:04N 50°19' W 000°06'110.0
2017-Nov-15 03:58N 50°18' W 000°07'5 9.7
2017-Nov-15 03:25N 50°17' W 000°15'40 7.8
2017-Nov-14 22:21N 50°06' W 001°14'3 7.6
2017-Nov-14 22:00N 50°05' W 001°18'4 7.8
2017-Nov-14 21:30N 50°04' W 001°24'4 8.5
2017-Nov-14 21:01N 50°03' W 001°31'5 9.1
2017-Nov-14 20:31N 50°02' W 001°37'5 9.7
2017-Nov-14 20:00N 50°01' W 001°45'510.4
2017-Nov-14 19:30N 49°59' W 001°52'811.0
2017-Nov-14 18:49N 49°57' W 002°04'5611.0
2017-Nov-14 13:43N 49°33' W 003°23'210.6
2017-Nov-14 13:30N 49°31' W 003°25'910.2
2017-Nov-14 12:36N 49°26' W 003°37'210.0
2017-Nov-14 12:25N 49°25' W 003°39'510.1
2017-Nov-14 11:52N 49°22' W 003°46'7 9.8
2017-Nov-14 11:08N 49°17' W 003°55'1 9.8
2017-Nov-14 11:00N 49°16' W 003°56'19 9.2
2017-Nov-14 08:54N 49°05' W 004°20'6 8.6
2017-Nov-14 08:15N 49°01' W 004°27'6 8.5
2017-Nov-14 07:34N 48°58' W 004°34'7 8.4
2017-Nov-14 06:40N 48°53' W 004°43'1 8.3
2017-Nov-14 06:30N 48°53' W 004°45'5 8.3
2017-Nov-14 05:56N 48°50' W 004°50'4 8.5
2017-Nov-14 05:26N 48°47' W 004°56'4 8.6
2017-Nov-14 04:59N 48°45' W 005°00'4 8.7
2017-Nov-14 04:30N 48°42' W 005°05'5 8.9
2017-Nov-14 04:00N 48°40' W 005°11'5 9.1
2017-Nov-14 03:30N 48°37' W 005°16'5 9.4
2017-Nov-14 02:59N 48°33' W 005°20'5 9.4
2017-Nov-14 02:30N 48°29' W 005°24'5 9.5
2017-Nov-14 02:00N 48°25' W 005°26'5 9.7
2017-Nov-14 01:30N 48°20' W 005°29'5 9.9
2017-Nov-14 01:00N 48°15' W 005°31'510.0
2017-Nov-14 00:30N 48°10' W 005°33'610.1
2017-Nov-13 23:58N 48°05' W 005°35'510.1
2017-Nov-13 23:30N 48°01' W 005°37'510.1
2017-Nov-13 23:00N 47°56' W 005°39'610.0
2017-Nov-13 22:23N 47°50' W 005°42'250 8.2
2017-Nov-12 15:44N 43°50' W 007°24'2 7.5
2017-Nov-12 15:30N 43°48' W 007°25'5 0.2
2017-Nov-11 15:30N 43°43' W 007°27'4 7.2
2017-Nov-11 15:00N 43°47' W 007°25'2 4.6
2017-Nov-11 14:30N 43°47' W 007°28'4 7.9
2017-Nov-11 14:00N 43°45' W 007°23'1 2.1
2017-Nov-11 13:26N 43°44' W 007°23'4 8.5
2017-Nov-11 13:00N 43°47' W 007°26'2 4.8
2017-Nov-11 12:30N 43°47' W 007°29'4 7.7
2017-Nov-11 12:01N 43°46' W 007°24'4 8.6
2017-Nov-11 11:31N 43°48' W 007°19'4 8.6
2017-Nov-11 11:00N 43°50' W 007°13'27310.6
2017-Nov-10 09:09N 46°08' W 001°40'110.4
2017-Nov-10 09:00N 46°08' W 001°38'510.6
2017-Nov-10 08:30N 46°07' W 001°30'510.7
2017-Nov-10 08:00N 46°07' W 001°23'5 9.9
2017-Nov-10 07:30N 46°07' W 001°16'3 6.5
2017-Nov-10 07:00N 46°10' W 001°13'0 0.0
2017-Nov-10 06:29N 46°10' W 001°13'0 0.0
2017-Nov-10 05:59N 46°10' W 001°13'0 0.0
2017-Nov-10 05:26N 46°10' W 001°13'0 0.0
2017-Nov-10 04:50N 46°10' W 001°13'0 0.0
2017-Nov-10 04:23N 46°10' W 001°13'0 0.0
2017-Nov-10 03:58N 46°10' W 001°13'0 0.0
2017-Nov-10 03:28N 46°10' W 001°13'0 0.0
2017-Nov-10 02:58N 46°10' W 001°13'0 0.0
2017-Nov-10 02:28N 46°10' W 001°13'0 0.0
2017-Nov-10 02:00N 46°10' W 001°13'0 0.0
2017-Nov-10 01:30N 46°10' W 001°13'0 0.0
2017-Nov-10 00:57N 46°10' W 001°13'0 0.0
2017-Nov-10 00:27N 46°10' W 001°13'0 0.0
2017-Nov-09 23:57N 46°10' W 001°13'0 0.0
2017-Nov-09 23:26N 46°10' W 001°13'0 0.0
2017-Nov-09 22:29N 46°10' W 001°13'0 0.0
2017-Nov-09 21:59N 46°10' W 001°13'0 0.0
2017-Nov-09 21:29N 46°10' W 001°13'0 0.0
2017-Nov-09 20:58N 46°10' W 001°13'0 0.0
2017-Nov-09 20:28N 46°10' W 001°13'0 0.0
2017-Nov-09 19:58N 46°10' W 001°13'0 0.0
2017-Nov-09 19:28N 46°10' W 001°13'0 0.0
2017-Nov-09 19:00N 46°10' W 001°13'0 0.0
2017-Nov-09 18:30N 46°10' W 001°13'0 0.0
2017-Nov-09 17:54N 46°10' W 001°13'0 0.0
2017-Nov-09 17:30N 46°10' W 001°13'0 0.0
2017-Nov-09 17:00N 46°10' W 001°13'0 0.0
2017-Nov-09 16:30N 46°10' W 001°13'0 0.0
2017-Nov-09 15:59N 46°10' W 001°13'0 0.0
2017-Nov-09 15:29N 46°10' W 001°13'0 0.0
2017-Nov-09 14:59N 46°10' W 001°13'0 0.0
2017-Nov-09 14:28N 46°10' W 001°13'0 0.0
2017-Nov-09 13:58N 46°10' W 001°13'0 0.0
2017-Nov-09 13:28N 46°10' W 001°13'0 0.0
2017-Nov-09 12:58N 46°10' W 001°13'0 0.0
2017-Nov-09 12:25N 46°10' W 001°13'0 0.0
2017-Nov-09 12:00N 46°10' W 001°13'0 0.0
2017-Nov-09 11:30N 46°10' W 001°13'0 0.0
2017-Nov-09 11:00N 46°10' W 001°13'0 0.0
2017-Nov-09 10:24N 46°10' W 001°13'0 0.0
2017-Nov-09 10:00N 46°10' W 001°13'0 0.0
2017-Nov-09 09:20N 46°10' W 001°13'0 0.0
2017-Nov-09 08:59N 46°10' W 001°13'0 0.0
2017-Nov-09 08:29N 46°10' W 001°13'  
Track history (hours):
 
Tides and Currents Weather Stations Pressure Air Temp Water Temp Dewpoint Dewpoint Depression Visibility Wind Speed Wind Dir Waves Ship Positions

Tucana

Last reported at 2017-Nov-19 08:10 UTC. Time now 2017-Nov-20 12:07 UTC.
Position N 55°59' E 016°30'.

Length 88 m; draft 5.6 m.

Type: Ship. MMSI: 245050000.

Date/timePositionNaut miles runAvg speedWind from/ knotsBaromVisibWave heightAir tempDewpointWater temp
2017-Nov-19 08:10N 55°59' E 016°30'2 9.5
2017-Nov-19 08:00N 55°58' E 016°28'5 9.4
2017-Nov-19 07:30N 55°56' E 016°20'5 9.4
2017-Nov-19 07:00N 55°54' E 016°13'5 9.3
2017-Nov-19 06:30N 55°51' E 016°06'5 9.5
2017-Nov-19 06:00N 55°49' E 015°58'5 9.5
2017-Nov-19 05:30N 55°47' E 015°51'5 9.4
2017-Nov-19 05:00N 55°45' E 015°44'5 9.4
2017-Nov-19 04:30N 55°42' E 015°36'5 9.5
2017-Nov-19 04:00N 55°40' E 015°29'5 9.7
2017-Nov-19 03:30N 55°38' E 015°21'5 9.5
2017-Nov-19 03:00N 55°35' E 015°14'5 9.6
2017-Nov-19 02:30N 55°33' E 015°07'7 9.5
2017-Nov-19 01:44N 55°30' E 014°55'2 9.6
2017-Nov-19 01:29N 55°29' E 014°52'6 9.7
2017-Nov-19 00:49N 55°25' E 014°42'3 9.5
2017-Nov-19 00:30N 55°24' E 014°37'5 9.3
2017-Nov-19 00:00N 55°20' E 014°32'4 8.6
2017-Nov-18 23:30N 55°17' E 014°27'4 8.5
2017-Nov-18 23:00N 55°13' E 014°23'4 8.1
2017-Nov-18 22:30N 55°11' E 014°17'5 9.0
2017-Nov-18 22:00N 55°11' E 014°09'6 9.1
2017-Nov-18 21:19N 55°11' E 013°58'37 9.3
2017-Nov-18 17:21N 55°15' E 012°54'6 9.6
2017-Nov-18 16:43N 55°17' E 012°44'2 9.5
2017-Nov-18 16:30N 55°18' E 012°40'4 8.0
2017-Nov-18 16:00N 55°21' E 012°39'5 9.6
2017-Nov-18 15:30N 55°26' E 012°40'510.2
2017-Nov-18 15:00N 55°31' E 012°42'510.5
2017-Nov-18 14:30N 55°36' E 012°42'611.0
2017-Nov-18 14:00N 55°42' E 012°41'510.5
2017-Nov-18 13:30N 55°47' E 012°41'510.2
2017-Nov-18 13:00N 55°52' E 012°40'5 9.9
2017-Nov-18 12:30N 55°57' E 012°38'5 9.9
2017-Nov-18 12:00N 56°02' E 012°38'5 9.4
2017-Nov-18 11:30N 56°06' E 012°33'5 9.9
2017-Nov-18 11:00N 56°09' E 012°26'5 9.7
2017-Nov-18 10:27N 56°12' E 012°18'68 8.9
2017-Nov-18 02:48N 57°15' E 011°31'4 9.3
2017-Nov-18 02:21N 57°19' E 011°28'4 9.1
2017-Nov-18 01:57N 57°22' E 011°25'4 9.1
2017-Nov-18 01:29N 57°26' E 011°22'5 9.1
2017-Nov-18 00:58N 57°29' E 011°16'5 9.7
2017-Nov-18 00:29N 57°32' E 011°08'5 9.7
2017-Nov-18 00:00N 57°34' E 011°01'510.0
2017-Nov-17 23:30N 57°37' E 010°53'510.1
2017-Nov-17 23:00N 57°40' E 010°46'5 9.8
2017-Nov-17 22:30N 57°42' E 010°37'5 2.7
2017-Nov-17 20:36N 57°45' E 010°45'1 9.0
2017-Nov-17 20:30N 57°46' E 010°44'610.9
2017-Nov-17 20:00N 57°46' E 010°34'347 8.7
2017-Nov-16 04:21N 53°08' E 004°29'510.6
2017-Nov-16 03:53N 53°04' E 004°25'410.8
2017-Nov-16 03:30N 53°00' E 004°22'510.9
2017-Nov-16 03:00N 52°55' E 004°18'511.0
2017-Nov-16 02:30N 52°51' E 004°13'611.0
2017-Nov-16 02:00N 52°46' E 004°08'510.9
2017-Nov-16 01:30N 52°42' E 004°02'91 9.4
2017-Nov-15 15:49N 51°34' E 002°23'3 9.4
2017-Nov-15 15:30N 51°32' E 002°20'5 9.5
2017-Nov-15 15:00N 51°28' E 002°15'510.0
2017-Nov-15 14:30N 51°24' E 002°11'510.1
2017-Nov-15 14:00N 51°20' E 002°08'510.4
2017-Nov-15 13:30N 51°15' E 002°04'510.6
2017-Nov-15 13:00N 51°12' E 001°57'510.8
2017-Nov-15 12:30N 51°09' E 001°50'611.3
2017-Nov-15 12:00N 51°05' E 001°43'611.6
2017-Nov-15 11:30N 51°01' E 001°37'611.9
2017-Nov-15 10:58N 50°56' E 001°30'7110.3
2017-Nov-15 04:04N 50°19' W 000°06'110.0
2017-Nov-15 03:58N 50°18' W 000°07'5 9.7
2017-Nov-15 03:25N 50°17' W 000°15'40 7.8
2017-Nov-14 22:21N 50°06' W 001°14'3 7.6
2017-Nov-14 22:00N 50°05' W 001°18'4 7.8
2017-Nov-14 21:30N 50°04' W 001°24'4 8.5
2017-Nov-14 21:01N 50°03' W 001°31'5 9.1
2017-Nov-14 20:31N 50°02' W 001°37'5 9.7
2017-Nov-14 20:00N 50°01' W 001°45'510.4
2017-Nov-14 19:30N 49°59' W 001°52'811.0
2017-Nov-14 18:49N 49°57' W 002°04'5611.0
2017-Nov-14 13:43N 49°33' W 003°23'210.6
2017-Nov-14 13:30N 49°31' W 003°25'910.2
2017-Nov-14 12:36N 49°26' W 003°37'210.0
2017-Nov-14 12:25N 49°25' W 003°39'510.1
2017-Nov-14 11:52N 49°22' W 003°46'7 9.8
2017-Nov-14 11:08N 49°17' W 003°55'1 9.8
2017-Nov-14 11:00N 49°16' W 003°56'19 9.2
2017-Nov-14 08:54N 49°05' W 004°20'6 8.6
2017-Nov-14 08:15N 49°01' W 004°27'6 8.5
2017-Nov-14 07:34N 48°58' W 004°34'7 8.4
2017-Nov-14 06:40N 48°53' W 004°43'1 8.3
2017-Nov-14 06:30N 48°53' W 004°45'5 8.3
2017-Nov-14 05:56N 48°50' W 004°50'4 8.5
2017-Nov-14 05:26N 48°47' W 004°56'4 8.6
2017-Nov-14 04:59N 48°45' W 005°00'4 8.7
2017-Nov-14 04:30N 48°42' W 005°05'5 8.9
2017-Nov-14 04:00N 48°40' W 005°11'5 9.1
2017-Nov-14 03:30N 48°37' W 005°16'5 9.4
2017-Nov-14 02:59N 48°33' W 005°20'5 9.4
2017-Nov-14 02:30N 48°29' W 005°24'5 9.5
2017-Nov-14 02:00N 48°25' W 005°26'5 9.7
2017-Nov-14 01:30N 48°20' W 005°29'5 9.9
2017-Nov-14 01:00N 48°15' W 005°31'510.0
2017-Nov-14 00:30N 48°10' W 005°33'610.1
2017-Nov-13 23:58N 48°05' W 005°35'510.1
2017-Nov-13 23:30N 48°01' W 005°37'510.1
2017-Nov-13 23:00N 47°56' W 005°39'610.0
2017-Nov-13 22:23N 47°50' W 005°42'250 8.2
2017-Nov-12 15:44N 43°50' W 007°24'2 7.5
2017-Nov-12 15:30N 43°48' W 007°25'5 0.2
2017-Nov-11 15:30N 43°43' W 007°27'4 7.2
2017-Nov-11 15:00N 43°47' W 007°25'2 4.6
2017-Nov-11 14:30N 43°47' W 007°28'4 7.9
2017-Nov-11 14:00N 43°45' W 007°23'1 2.1
2017-Nov-11 13:26N 43°44' W 007°23'4 8.5
2017-Nov-11 13:00N 43°47' W 007°26'2 4.8
2017-Nov-11 12:30N 43°47' W 007°29'4 7.7
2017-Nov-11 12:01N 43°46' W 007°24'4 8.6
2017-Nov-11 11:31N 43°48' W 007°19'4 8.6
2017-Nov-11 11:00N 43°50' W 007°13'27310.6
2017-Nov-10 09:09N 46°08' W 001°40'110.4
2017-Nov-10 09:00N 46°08' W 001°38'510.6
2017-Nov-10 08:30N 46°07' W 001°30'510.7
2017-Nov-10 08:00N 46°07' W 001°23'5 9.9
2017-Nov-10 07:30N 46°07' W 001°16'3 6.5
2017-Nov-10 07:00N 46°10' W 001°13'0 0.0
2017-Nov-10 06:29N 46°10' W 001°13'0 0.0
2017-Nov-10 05:59N 46°10' W 001°13'0 0.0
2017-Nov-10 05:26N 46°10' W 001°13'0 0.0
2017-Nov-10 04:50N 46°10' W 001°13'0 0.0
2017-Nov-10 04:23N 46°10' W 001°13'0 0.0
2017-Nov-10 03:58N 46°10' W 001°13'0 0.0
2017-Nov-10 03:28N 46°10' W 001°13'0 0.0
2017-Nov-10 02:58N 46°10' W 001°13'0 0.0
2017-Nov-10 02:28N 46°10' W 001°13'0 0.0
2017-Nov-10 02:00N 46°10' W 001°13'0 0.0
2017-Nov-10 01:30N 46°10' W 001°13'0 0.0
2017-Nov-10 00:57N 46°10' W 001°13'0 0.0
2017-Nov-10 00:27N 46°10' W 001°13'0 0.0
2017-Nov-09 23:57N 46°10' W 001°13'0 0.0
2017-Nov-09 23:26N 46°10' W 001°13'0 0.0
2017-Nov-09 22:29N 46°10' W 001°13'0 0.0
2017-Nov-09 21:59N 46°10' W 001°13'0 0.0
2017-Nov-09 21:29N 46°10' W 001°13'0 0.0
2017-Nov-09 20:58N 46°10' W 001°13'0 0.0
2017-Nov-09 20:28N 46°10' W 001°13'0 0.0
2017-Nov-09 19:58N 46°10' W 001°13'0 0.0
2017-Nov-09 19:28N 46°10' W 001°13'0 0.0
2017-Nov-09 19:00N 46°10' W 001°13'0 0.0
2017-Nov-09 18:30N 46°10' W 001°13'0 0.0
2017-Nov-09 17:54N 46°10' W 001°13'0 0.0
2017-Nov-09 17:30N 46°10' W 001°13'0 0.0
2017-Nov-09 17:00N 46°10' W 001°13'0 0.0
2017-Nov-09 16:30N 46°10' W 001°13'0 0.0
2017-Nov-09 15:59N 46°10' W 001°13'0 0.0
2017-Nov-09 15:29N 46°10' W 001°13'0 0.0
2017-Nov-09 14:59N 46°10' W 001°13'0 0.0
2017-Nov-09 14:28N 46°10' W 001°13'0 0.0
2017-Nov-09 13:58N 46°10' W 001°13'0 0.0
2017-Nov-09 13:28N 46°10' W 001°13'0 0.0
2017-Nov-09 12:58N 46°10' W 001°13'0 0.0
2017-Nov-09 12:25N 46°10' W 001°13'0 0.0
2017-Nov-09 12:00N 46°10' W 001°13'0 0.0
2017-Nov-09 11:30N 46°10' W 001°13'0 0.0
2017-Nov-09 11:00N 46°10' W 001°13'0 0.0
2017-Nov-09 10:24N 46°10' W 001°13'0 0.0
2017-Nov-09 10:00N 46°10' W 001°13'0 0.0
2017-Nov-09 09:20N 46°10' W 001°13'0 0.0
2017-Nov-09 08:59N 46°10' W 001°13'0 0.0
2017-Nov-09 08:29N 46°10' W 001°13'  

Dump ship's entire track history